sensor_id;sensor_type;location;lat;lon;timestamp;P1;durP1;ratioP1;P2;durP2;ratioP2
42616;SDS011;28250;52.320;0.360;2024-03-08T00:00:08;35.88;;;17.25;;
42616;SDS011;28250;52.320;0.360;2024-03-08T00:02:38;36.22;;;18.10;;
42616;SDS011;28250;52.320;0.360;2024-03-08T00:05:05;40.33;;;18.27;;
42616;SDS011;28250;52.320;0.360;2024-03-08T00:07:35;40.38;;;19.40;;
42616;SDS011;28250;52.320;0.360;2024-03-08T00:10:03;41.47;;;18.38;;
42616;SDS011;28250;52.320;0.360;2024-03-08T00:12:30;39.55;;;18.73;;
42616;SDS011;28250;52.320;0.360;2024-03-08T00:14:57;40.60;;;19.52;;
42616;SDS011;28250;52.320;0.360;2024-03-08T00:17:23;40.60;;;19.35;;
42616;SDS011;28250;52.320;0.360;2024-03-08T00:19:50;40.42;;;19.10;;
42616;SDS011;28250;52.320;0.360;2024-03-08T00:22:16;43.28;;;19.48;;
42616;SDS011;28250;52.320;0.360;2024-03-08T00:24:43;38.60;;;19.70;;
42616;SDS011;28250;52.320;0.360;2024-03-08T00:27:09;45.28;;;19.33;;
42616;SDS011;28250;52.320;0.360;2024-03-08T00:29:36;44.42;;;19.35;;
42616;SDS011;28250;52.320;0.360;2024-03-08T00:32:04;41.70;;;19.92;;
42616;SDS011;28250;52.320;0.360;2024-03-08T00:34:30;37.75;;;18.35;;
42616;SDS011;28250;52.320;0.360;2024-03-08T00:36:57;40.70;;;18.92;;
42616;SDS011;28250;52.320;0.360;2024-03-08T00:39:23;41.95;;;18.80;;
42616;SDS011;28250;52.320;0.360;2024-03-08T00:41:50;38.88;;;18.80;;
42616;SDS011;28250;52.320;0.360;2024-03-08T00:44:17;43.13;;;20.00;;
42616;SDS011;28250;52.320;0.360;2024-03-08T00:46:43;41.47;;;18.48;;
42616;SDS011;28250;52.320;0.360;2024-03-08T00:49:09;39.58;;;19.90;;
42616;SDS011;28250;52.320;0.360;2024-03-08T00:51:37;42.88;;;19.95;;
42616;SDS011;28250;52.320;0.360;2024-03-08T00:54:03;38.78;;;19.05;;
42616;SDS011;28250;52.320;0.360;2024-03-08T00:56:29;44.25;;;20.58;;
42616;SDS011;28250;52.320;0.360;2024-03-08T00:58:55;41.83;;;18.27;;
42616;SDS011;28250;52.320;0.360;2024-03-08T01:01:22;44.80;;;19.52;;
42616;SDS011;28250;52.320;0.360;2024-03-08T01:03:50;37.90;;;18.27;;
42616;SDS011;28250;52.320;0.360;2024-03-08T01:06:16;45.28;;;18.70;;
42616;SDS011;28250;52.320;0.360;2024-03-08T01:08:42;43.78;;;18.55;;
42616;SDS011;28250;52.320;0.360;2024-03-08T01:11:08;38.90;;;18.17;;
42616;SDS011;28250;52.320;0.360;2024-03-08T01:13:35;44.53;;;19.45;;
42616;SDS011;28250;52.320;0.360;2024-03-08T01:16:01;41.35;;;18.52;;
42616;SDS011;28250;52.320;0.360;2024-03-08T01:18:29;40.40;;;17.42;;
42616;SDS011;28250;52.320;0.360;2024-03-08T01:20:55;43.65;;;18.42;;
42616;SDS011;28250;52.320;0.360;2024-03-08T01:23:22;41.28;;;17.95;;
42616;SDS011;28250;52.320;0.360;2024-03-08T01:25:49;42.10;;;17.23;;
42616;SDS011;28250;52.320;0.360;2024-03-08T01:28:25;42.40;;;18.80;;
42616;SDS011;28250;52.320;0.360;2024-03-08T01:30:52;42.97;;;18.35;;
42616;SDS011;28250;52.320;0.360;2024-03-08T01:33:24;40.35;;;18.42;;
42616;SDS011;28250;52.320;0.360;2024-03-08T01:35:52;41.40;;;17.55;;
42616;SDS011;28250;52.320;0.360;2024-03-08T01:38:19;39.22;;;17.67;;
42616;SDS011;28250;52.320;0.360;2024-03-08T01:43:17;39.30;;;16.88;;
42616;SDS011;28250;52.320;0.360;2024-03-08T01:45:46;47.40;;;18.60;;
42616;SDS011;28250;52.320;0.360;2024-03-08T01:48:14;43.38;;;18.63;;
42616;SDS011;28250;52.320;0.360;2024-03-08T01:50:42;40.60;;;17.05;;
42616;SDS011;28250;52.320;0.360;2024-03-08T01:53:09;38.42;;;17.90;;
42616;SDS011;28250;52.320;0.360;2024-03-08T01:55:37;42.22;;;17.33;;
42616;SDS011;28250;52.320;0.360;2024-03-08T01:58:05;46.50;;;17.88;;
42616;SDS011;28250;52.320;0.360;2024-03-08T02:00:32;45.70;;;18.27;;
42616;SDS011;28250;52.320;0.360;2024-03-08T02:03:01;46.13;;;18.65;;
42616;SDS011;28250;52.320;0.360;2024-03-08T02:05:28;46.60;;;18.48;;
42616;SDS011;28250;52.320;0.360;2024-03-08T02:07:54;41.17;;;18.30;;
42616;SDS011;28250;52.320;0.360;2024-03-08T02:10:21;41.58;;;17.15;;
42616;SDS011;28250;52.320;0.360;2024-03-08T02:12:47;46.08;;;17.70;;
42616;SDS011;28250;52.320;0.360;2024-03-08T02:15:14;41.42;;;17.15;;
42616;SDS011;28250;52.320;0.360;2024-03-08T02:17:40;45.20;;;19.08;;
42616;SDS011;28250;52.320;0.360;2024-03-08T02:20:07;45.75;;;19.23;;
42616;SDS011;28250;52.320;0.360;2024-03-08T02:22:34;43.40;;;19.35;;
42616;SDS011;28250;52.320;0.360;2024-03-08T02:25:02;50.20;;;18.63;;
42616;SDS011;28250;52.320;0.360;2024-03-08T02:27:28;45.65;;;19.08;;
42616;SDS011;28250;52.320;0.360;2024-03-08T02:29:55;43.15;;;17.85;;
42616;SDS011;28250;52.320;0.360;2024-03-08T02:34:49;43.20;;;19.17;;
42616;SDS011;28250;52.320;0.360;2024-03-08T02:37:16;47.33;;;19.30;;
42616;SDS011;28250;52.320;0.360;2024-03-08T02:39:43;53.10;;;20.17;;
42616;SDS011;28250;52.320;0.360;2024-03-08T02:42:10;53.60;;;20.63;;
42616;SDS011;28250;52.320;0.360;2024-03-08T02:44:37;46.88;;;19.48;;
42616;SDS011;28250;52.320;0.360;2024-03-08T02:47:09;53.25;;;19.52;;
42616;SDS011;28250;52.320;0.360;2024-03-08T02:52:03;42.30;;;18.02;;
42616;SDS011;28250;52.320;0.360;2024-03-08T02:54:30;46.95;;;19.45;;
42616;SDS011;28250;52.320;0.360;2024-03-08T02:56:56;49.38;;;19.98;;
42616;SDS011;28250;52.320;0.360;2024-03-08T02:59:22;46.72;;;18.83;;
42616;SDS011;28250;52.320;0.360;2024-03-08T03:01:49;46.20;;;20.25;;
42616;SDS011;28250;52.320;0.360;2024-03-08T03:04:16;49.47;;;19.17;;
42616;SDS011;28250;52.320;0.360;2024-03-08T03:06:43;49.28;;;19.45;;
42616;SDS011;28250;52.320;0.360;2024-03-08T03:09:09;52.03;;;21.38;;
42616;SDS011;28250;52.320;0.360;2024-03-08T03:11:36;47.08;;;19.63;;
42616;SDS011;28250;52.320;0.360;2024-03-08T03:14:03;53.50;;;21.90;;
42616;SDS011;28250;52.320;0.360;2024-03-08T03:16:29;53.67;;;20.13;;
42616;SDS011;28250;52.320;0.360;2024-03-08T03:18:56;50.22;;;19.60;;
42616;SDS011;28250;52.320;0.360;2024-03-08T03:21:24;49.25;;;20.17;;
42616;SDS011;28250;52.320;0.360;2024-03-08T03:23:57;53.13;;;20.02;;
42616;SDS011;28250;52.320;0.360;2024-03-08T03:26:24;48.22;;;20.17;;
42616;SDS011;28250;52.320;0.360;2024-03-08T03:28:51;57.70;;;21.52;;
42616;SDS011;28250;52.320;0.360;2024-03-08T03:31:17;51.72;;;21.55;;
42616;SDS011;28250;52.320;0.360;2024-03-08T03:33:44;57.37;;;21.13;;
42616;SDS011;28250;52.320;0.360;2024-03-08T03:36:10;54.08;;;20.27;;
42616;SDS011;28250;52.320;0.360;2024-03-08T03:38:37;53.42;;;21.08;;
42616;SDS011;28250;52.320;0.360;2024-03-08T03:41:03;59.33;;;21.90;;
42616;SDS011;28250;52.320;0.360;2024-03-08T03:43:36;55.60;;;22.13;;
42616;SDS011;28250;52.320;0.360;2024-03-08T03:46:05;52.63;;;20.98;;
42616;SDS011;28250;52.320;0.360;2024-03-08T03:48:32;56.00;;;21.20;;
42616;SDS011;28250;52.320;0.360;2024-03-08T03:50:59;52.80;;;21.48;;
42616;SDS011;28250;52.320;0.360;2024-03-08T03:53:25;53.80;;;21.45;;
42616;SDS011;28250;52.320;0.360;2024-03-08T03:55:52;56.05;;;19.98;;
42616;SDS011;28250;52.320;0.360;2024-03-08T03:58:18;53.85;;;21.17;;
42616;SDS011;28250;52.320;0.360;2024-03-08T04:00:48;53.67;;;21.52;;
42616;SDS011;28250;52.320;0.360;2024-03-08T04:03:14;54.97;;;22.23;;
42616;SDS011;28250;52.320;0.360;2024-03-08T04:08:08;55.33;;;21.55;;
42616;SDS011;28250;52.320;0.360;2024-03-08T04:10:34;55.42;;;23.08;;
42616;SDS011;28250;52.320;0.360;2024-03-08T04:13:00;50.03;;;21.98;;
42616;SDS011;28250;52.320;0.360;2024-03-08T04:15:27;53.05;;;21.60;;
42616;SDS011;28250;52.320;0.360;2024-03-08T04:17:53;55.80;;;23.20;;
42616;SDS011;28250;52.320;0.360;2024-03-08T04:20:20;53.93;;;22.50;;
42616;SDS011;28250;52.320;0.360;2024-03-08T04:22:46;61.42;;;23.02;;
42616;SDS011;28250;52.320;0.360;2024-03-08T04:25:14;60.75;;;22.90;;
42616;SDS011;28250;52.320;0.360;2024-03-08T04:27:41;59.88;;;23.85;;
42616;SDS011;28250;52.320;0.360;2024-03-08T04:30:07;58.50;;;24.17;;
42616;SDS011;28250;52.320;0.360;2024-03-08T04:32:34;55.30;;;22.25;;
42616;SDS011;28250;52.320;0.360;2024-03-08T04:35:01;58.42;;;24.33;;
42616;SDS011;28250;52.320;0.360;2024-03-08T04:37:28;57.38;;;22.77;;
42616;SDS011;28250;52.320;0.360;2024-03-08T04:39:55;59.88;;;23.40;;
42616;SDS011;28250;52.320;0.360;2024-03-08T04:42:21;58.78;;;23.80;;
42616;SDS011;28250;52.320;0.360;2024-03-08T04:44:48;58.15;;;23.00;;
42616;SDS011;28250;52.320;0.360;2024-03-08T04:47:14;58.90;;;23.20;;
42616;SDS011;28250;52.320;0.360;2024-03-08T04:49:43;57.63;;;24.65;;
42616;SDS011;28250;52.320;0.360;2024-03-08T04:52:09;60.17;;;23.17;;
42616;SDS011;28250;52.320;0.360;2024-03-08T04:54:36;61.88;;;24.52;;
42616;SDS011;28250;52.320;0.360;2024-03-08T04:57:02;61.42;;;25.70;;
42616;SDS011;28250;52.320;0.360;2024-03-08T04:59:30;58.45;;;23.17;;
42616;SDS011;28250;52.320;0.360;2024-03-08T05:01:56;60.20;;;23.58;;
42616;SDS011;28250;52.320;0.360;2024-03-08T05:04:22;58.75;;;24.13;;
42616;SDS011;28250;52.320;0.360;2024-03-08T05:06:49;55.72;;;22.52;;
42616;SDS011;28250;52.320;0.360;2024-03-08T05:09:15;61.53;;;23.52;;
42616;SDS011;28250;52.320;0.360;2024-03-08T05:11:42;60.20;;;24.70;;
42616;SDS011;28250;52.320;0.360;2024-03-08T05:14:09;59.55;;;23.00;;
42616;SDS011;28250;52.320;0.360;2024-03-08T05:16:37;59.28;;;23.20;;
42616;SDS011;28250;52.320;0.360;2024-03-08T05:19:05;60.35;;;22.20;;
42616;SDS011;28250;52.320;0.360;2024-03-08T05:21:31;59.75;;;22.33;;
42616;SDS011;28250;52.320;0.360;2024-03-08T05:23:58;56.10;;;22.92;;
42616;SDS011;28250;52.320;0.360;2024-03-08T05:26:24;52.88;;;20.88;;
42616;SDS011;28250;52.320;0.360;2024-03-08T05:28:50;54.38;;;21.65;;
42616;SDS011;28250;52.320;0.360;2024-03-08T05:31:19;47.65;;;19.83;;
42616;SDS011;28250;52.320;0.360;2024-03-08T05:33:49;57.33;;;21.90;;
42616;SDS011;28250;52.320;0.360;2024-03-08T05:36:16;56.47;;;22.77;;
42616;SDS011;28250;52.320;0.360;2024-03-08T05:38:43;54.40;;;22.38;;
42616;SDS011;28250;52.320;0.360;2024-03-08T05:41:09;58.22;;;23.05;;
42616;SDS011;28250;52.320;0.360;2024-03-08T05:43:37;53.55;;;20.92;;
42616;SDS011;28250;52.320;0.360;2024-03-08T05:46:05;52.30;;;22.80;;
42616;SDS011;28250;52.320;0.360;2024-03-08T05:48:32;56.08;;;21.92;;
42616;SDS011;28250;52.320;0.360;2024-03-08T05:50:59;54.45;;;21.27;;
42616;SDS011;28250;52.320;0.360;2024-03-08T05:53:27;47.08;;;21.33;;
42616;SDS011;28250;52.320;0.360;2024-03-08T05:55:57;51.90;;;20.98;;
42616;SDS011;28250;52.320;0.360;2024-03-08T05:58:24;50.90;;;20.38;;
42616;SDS011;28250;52.320;0.360;2024-03-08T06:00:50;56.63;;;21.15;;
42616;SDS011;28250;52.320;0.360;2024-03-08T06:03:17;55.97;;;21.73;;
42616;SDS011;28250;52.320;0.360;2024-03-08T06:05:47;54.88;;;22.05;;
42616;SDS011;28250;52.320;0.360;2024-03-08T06:08:15;54.50;;;22.25;;
42616;SDS011;28250;52.320;0.360;2024-03-08T06:10:42;51.58;;;21.35;;
42616;SDS011;28250;52.320;0.360;2024-03-08T06:13:08;50.83;;;20.27;;
42616;SDS011;28250;52.320;0.360;2024-03-08T06:15:34;56.50;;;21.73;;
42616;SDS011;28250;52.320;0.360;2024-03-08T06:18:00;52.35;;;20.88;;
42616;SDS011;28250;52.320;0.360;2024-03-08T06:20:26;59.75;;;21.88;;
42616;SDS011;28250;52.320;0.360;2024-03-08T06:22:53;56.60;;;21.70;;
42616;SDS011;28250;52.320;0.360;2024-03-08T06:25:19;53.13;;;20.35;;
42616;SDS011;28250;52.320;0.360;2024-03-08T06:27:46;57.60;;;21.73;;
42616;SDS011;28250;52.320;0.360;2024-03-08T06:30:12;52.22;;;21.52;;
42616;SDS011;28250;52.320;0.360;2024-03-08T06:32:41;59.08;;;23.25;;
42616;SDS011;28250;52.320;0.360;2024-03-08T06:35:08;51.70;;;21.73;;
42616;SDS011;28250;52.320;0.360;2024-03-08T06:37:35;57.90;;;23.50;;
42616;SDS011;28250;52.320;0.360;2024-03-08T06:40:02;53.88;;;21.77;;
42616;SDS011;28250;52.320;0.360;2024-03-08T06:42:29;55.38;;;22.52;;
42616;SDS011;28250;52.320;0.360;2024-03-08T06:44:59;57.88;;;23.40;;
42616;SDS011;28250;52.320;0.360;2024-03-08T06:47:30;53.08;;;21.42;;
42616;SDS011;28250;52.320;0.360;2024-03-08T06:50:00;56.63;;;22.05;;
42616;SDS011;28250;52.320;0.360;2024-03-08T06:52:30;59.22;;;22.38;;
42616;SDS011;28250;52.320;0.360;2024-03-08T06:54:56;49.35;;;21.92;;
42616;SDS011;28250;52.320;0.360;2024-03-08T06:57:22;57.88;;;22.13;;
42616;SDS011;28250;52.320;0.360;2024-03-08T07:02:17;57.10;;;21.60;;
42616;SDS011;28250;52.320;0.360;2024-03-08T07:04:44;55.97;;;21.90;;
42616;SDS011;28250;52.320;0.360;2024-03-08T07:07:10;53.35;;;21.35;;
42616;SDS011;28250;52.320;0.360;2024-03-08T07:09:36;53.10;;;22.13;;
42616;SDS011;28250;52.320;0.360;2024-03-08T07:12:02;54.63;;;21.73;;
42616;SDS011;28250;52.320;0.360;2024-03-08T07:14:29;54.50;;;24.33;;
42616;SDS011;28250;52.320;0.360;2024-03-08T07:16:56;50.13;;;20.95;;
42616;SDS011;28250;52.320;0.360;2024-03-08T07:19:22;52.53;;;21.65;;
42616;SDS011;28250;52.320;0.360;2024-03-08T07:21:49;63.53;;;20.53;;
42616;SDS011;28250;52.320;0.360;2024-03-08T07:24:15;53.78;;;21.50;;
42616;SDS011;28250;52.320;0.360;2024-03-08T07:27:00;52.45;;;20.15;;
42616;SDS011;28250;52.320;0.360;2024-03-08T07:29:26;51.65;;;20.80;;
42616;SDS011;28250;52.320;0.360;2024-03-08T07:31:53;55.50;;;23.53;;
42616;SDS011;28250;52.320;0.360;2024-03-08T07:34:47;53.25;;;22.38;;
42616;SDS011;28250;52.320;0.360;2024-03-08T07:37:17;54.17;;;22.25;;
42616;SDS011;28250;52.320;0.360;2024-03-08T07:42:10;51.13;;;21.70;;
42616;SDS011;28250;52.320;0.360;2024-03-08T07:44:37;53.80;;;23.02;;
42616;SDS011;28250;52.320;0.360;2024-03-08T07:47:04;47.83;;;20.40;;
42616;SDS011;28250;52.320;0.360;2024-03-08T07:49:32;55.83;;;22.15;;
42616;SDS011;28250;52.320;0.360;2024-03-08T07:51:59;51.45;;;20.73;;
42616;SDS011;28250;52.320;0.360;2024-03-08T07:54:26;49.58;;;19.95;;
42616;SDS011;28250;52.320;0.360;2024-03-08T07:56:52;49.28;;;20.33;;
42616;SDS011;28250;52.320;0.360;2024-03-08T07:59:18;55.95;;;22.58;;
42616;SDS011;28250;52.320;0.360;2024-03-08T08:01:46;53.95;;;21.70;;
42616;SDS011;28250;52.320;0.360;2024-03-08T08:04:13;50.63;;;20.83;;
42616;SDS011;28250;52.320;0.360;2024-03-08T08:06:43;46.70;;;19.98;;
42616;SDS011;28250;52.320;0.360;2024-03-08T08:09:09;50.28;;;21.65;;
42616;SDS011;28250;52.320;0.360;2024-03-08T08:11:40;55.45;;;21.88;;
42616;SDS011;28250;52.320;0.360;2024-03-08T08:14:09;50.00;;;20.98;;
42616;SDS011;28250;52.320;0.360;2024-03-08T08:16:36;50.45;;;21.63;;
42616;SDS011;28250;52.320;0.360;2024-03-08T08:19:03;46.63;;;21.67;;
42616;SDS011;28250;52.320;0.360;2024-03-08T08:21:34;52.47;;;22.15;;
42616;SDS011;28250;52.320;0.360;2024-03-08T08:24:03;53.85;;;22.17;;
42616;SDS011;28250;52.320;0.360;2024-03-08T08:26:30;59.65;;;23.33;;
42616;SDS011;28250;52.320;0.360;2024-03-08T08:28:56;52.55;;;23.63;;
42616;SDS011;28250;52.320;0.360;2024-03-08T08:31:22;54.92;;;24.00;;
42616;SDS011;28250;52.320;0.360;2024-03-08T08:33:48;54.28;;;24.20;;
42616;SDS011;28250;52.320;0.360;2024-03-08T08:36:15;57.88;;;23.55;;
42616;SDS011;28250;52.320;0.360;2024-03-08T08:38:41;55.10;;;23.83;;
42616;SDS011;28250;52.320;0.360;2024-03-08T08:41:09;54.67;;;21.63;;
42616;SDS011;28250;52.320;0.360;2024-03-08T08:43:36;62.53;;;23.70;;
42616;SDS011;28250;52.320;0.360;2024-03-08T08:46:04;55.58;;;22.98;;
42616;SDS011;28250;52.320;0.360;2024-03-08T08:48:31;60.20;;;25.17;;
42616;SDS011;28250;52.320;0.360;2024-03-08T08:50:57;48.97;;;22.35;;
42616;SDS011;28250;52.320;0.360;2024-03-08T08:53:23;57.50;;;23.48;;
42616;SDS011;28250;52.320;0.360;2024-03-08T08:55:49;50.50;;;21.92;;
42616;SDS011;28250;52.320;0.360;2024-03-08T08:58:15;54.67;;;23.65;;
42616;SDS011;28250;52.320;0.360;2024-03-08T09:00:41;51.78;;;23.95;;
42616;SDS011;28250;52.320;0.360;2024-03-08T09:05:36;53.08;;;22.85;;
42616;SDS011;28250;52.320;0.360;2024-03-08T09:08:02;51.28;;;23.48;;
42616;SDS011;28250;52.320;0.360;2024-03-08T09:10:29;53.58;;;23.98;;
42616;SDS011;28250;52.320;0.360;2024-03-08T09:12:55;50.00;;;22.58;;
42616;SDS011;28250;52.320;0.360;2024-03-08T09:15:21;55.88;;;23.45;;
42616;SDS011;28250;52.320;0.360;2024-03-08T09:17:47;48.28;;;22.02;;
42616;SDS011;28250;52.320;0.360;2024-03-08T09:20:13;56.35;;;24.30;;
42616;SDS011;28250;52.320;0.360;2024-03-08T09:22:43;54.05;;;23.88;;
42616;SDS011;28250;52.320;0.360;2024-03-08T09:25:10;52.28;;;23.55;;
42616;SDS011;28250;52.320;0.360;2024-03-08T09:27:36;54.08;;;23.95;;
42616;SDS011;28250;52.320;0.360;2024-03-08T09:30:02;53.17;;;23.48;;
42616;SDS011;28250;52.320;0.360;2024-03-08T09:32:31;55.33;;;23.88;;
42616;SDS011;28250;52.320;0.360;2024-03-08T09:34:57;56.55;;;23.13;;
42616;SDS011;28250;52.320;0.360;2024-03-08T09:37:23;57.30;;;23.17;;
42616;SDS011;28250;52.320;0.360;2024-03-08T09:39:49;47.72;;;22.23;;
42616;SDS011;28250;52.320;0.360;2024-03-08T09:42:16;52.30;;;24.52;;
42616;SDS011;28250;52.320;0.360;2024-03-08T09:44:44;51.53;;;22.50;;
42616;SDS011;28250;52.320;0.360;2024-03-08T09:47:12;52.70;;;22.52;;
42616;SDS011;28250;52.320;0.360;2024-03-08T09:49:40;45.45;;;22.20;;
42616;SDS011;28250;52.320;0.360;2024-03-08T09:52:08;52.05;;;23.02;;
42616;SDS011;28250;52.320;0.360;2024-03-08T09:54:35;51.67;;;22.17;;
42616;SDS011;28250;52.320;0.360;2024-03-08T09:57:03;50.80;;;23.08;;
42616;SDS011;28250;52.320;0.360;2024-03-08T09:59:30;49.92;;;23.75;;
42616;SDS011;28250;52.320;0.360;2024-03-08T10:02:02;48.53;;;22.42;;
42616;SDS011;28250;52.320;0.360;2024-03-08T10:06:57;45.63;;;21.83;;
42616;SDS011;28250;52.320;0.360;2024-03-08T10:09:24;49.80;;;22.27;;
42616;SDS011;28250;52.320;0.360;2024-03-08T10:11:53;46.00;;;22.73;;
42616;SDS011;28250;52.320;0.360;2024-03-08T10:14:25;48.83;;;21.95;;
42616;SDS011;28250;52.320;0.360;2024-03-08T10:16:52;50.38;;;22.55;;
42616;SDS011;28250;52.320;0.360;2024-03-08T10:19:19;47.97;;;22.58;;
42616;SDS011;28250;52.320;0.360;2024-03-08T10:21:49;51.80;;;22.75;;
42616;SDS011;28250;52.320;0.360;2024-03-08T10:24:18;51.40;;;21.83;;
42616;SDS011;28250;52.320;0.360;2024-03-08T10:26:45;45.05;;;21.35;;
42616;SDS011;28250;52.320;0.360;2024-03-08T10:29:12;47.85;;;22.05;;
42616;SDS011;28250;52.320;0.360;2024-03-08T10:31:43;45.35;;;22.75;;
42616;SDS011;28250;52.320;0.360;2024-03-08T10:34:12;47.50;;;22.17;;
42616;SDS011;28250;52.320;0.360;2024-03-08T10:36:39;48.20;;;21.77;;
42616;SDS011;28250;52.320;0.360;2024-03-08T10:41:48;54.80;;;23.38;;
42616;SDS011;28250;52.320;0.360;2024-03-08T10:44:37;46.95;;;21.65;;
42616;SDS011;28250;52.320;0.360;2024-03-08T10:49:50;48.22;;;23.75;;
42616;SDS011;28250;52.320;0.360;2024-03-08T10:52:21;45.83;;;21.80;;
42616;SDS011;28250;52.320;0.360;2024-03-08T10:54:48;50.33;;;22.90;;
42616;SDS011;28250;52.320;0.360;2024-03-08T10:57:17;42.28;;;21.80;;
42616;SDS011;28250;52.320;0.360;2024-03-08T10:59:46;45.15;;;22.83;;
42616;SDS011;28250;52.320;0.360;2024-03-08T11:02:15;43.97;;;22.52;;
42616;SDS011;28250;52.320;0.360;2024-03-08T11:04:48;46.67;;;24.27;;
42616;SDS011;28250;52.320;0.360;2024-03-08T11:07:16;49.45;;;24.67;;
42616;SDS011;28250;52.320;0.360;2024-03-08T11:09:44;44.13;;;21.83;;
42616;SDS011;28250;52.320;0.360;2024-03-08T11:12:27;44.33;;;21.83;;
42616;SDS011;28250;52.320;0.360;2024-03-08T11:14:59;47.42;;;22.50;;
42616;SDS011;28250;52.320;0.360;2024-03-08T11:19:56;37.55;;;19.33;;
42616;SDS011;28250;52.320;0.360;2024-03-08T11:22:28;43.03;;;21.25;;
42616;SDS011;28250;52.320;0.360;2024-03-08T11:24:58;45.13;;;21.85;;
42616;SDS011;28250;52.320;0.360;2024-03-08T11:27:28;43.15;;;21.00;;
42616;SDS011;28250;52.320;0.360;2024-03-08T11:30:04;41.33;;;21.63;;
42616;SDS011;28250;52.320;0.360;2024-03-08T11:32:36;39.85;;;19.85;;
42616;SDS011;28250;52.320;0.360;2024-03-08T11:37:33;41.78;;;20.90;;
42616;SDS011;28250;52.320;0.360;2024-03-08T11:40:01;38.38;;;19.38;;
42616;SDS011;28250;52.320;0.360;2024-03-08T11:42:30;40.20;;;20.17;;
42616;SDS011;28250;52.320;0.360;2024-03-08T11:44:56;42.35;;;20.40;;
42616;SDS011;28250;52.320;0.360;2024-03-08T11:47:23;37.15;;;19.92;;
42616;SDS011;28250;52.320;0.360;2024-03-08T11:49:51;32.53;;;17.50;;
42616;SDS011;28250;52.320;0.360;2024-03-08T11:52:18;38.03;;;18.33;;
42616;SDS011;28250;52.320;0.360;2024-03-08T11:54:48;32.90;;;16.87;;
42616;SDS011;28250;52.320;0.360;2024-03-08T11:57:20;33.72;;;17.20;;
42616;SDS011;28250;52.320;0.360;2024-03-08T11:59:49;37.40;;;17.52;;
42616;SDS011;28250;52.320;0.360;2024-03-08T12:02:16;32.90;;;17.27;;
42616;SDS011;28250;52.320;0.360;2024-03-08T12:04:44;34.75;;;16.65;;
42616;SDS011;28250;52.320;0.360;2024-03-08T12:07:14;31.45;;;16.65;;
42616;SDS011;28250;52.320;0.360;2024-03-08T12:09:44;36.70;;;17.88;;
42616;SDS011;28250;52.320;0.360;2024-03-08T12:12:44;29.25;;;16.63;;
42616;SDS011;28250;52.320;0.360;2024-03-08T12:15:13;31.45;;;16.70;;
42616;SDS011;28250;52.320;0.360;2024-03-08T12:17:41;28.42;;;14.85;;
42616;SDS011;28250;52.320;0.360;2024-03-08T12:22:47;28.02;;;14.50;;
42616;SDS011;28250;52.320;0.360;2024-03-08T12:25:14;30.08;;;16.25;;
42616;SDS011;28250;52.320;0.360;2024-03-08T12:27:41;31.52;;;16.85;;
42616;SDS011;28250;52.320;0.360;2024-03-08T12:32:47;35.40;;;16.95;;
42616;SDS011;28250;52.320;0.360;2024-03-08T12:35:19;34.47;;;17.42;;
42616;SDS011;28250;52.320;0.360;2024-03-08T12:37:49;31.10;;;16.88;;
42616;SDS011;28250;52.320;0.360;2024-03-08T12:40:18;30.00;;;16.58;;
42616;SDS011;28250;52.320;0.360;2024-03-08T12:42:52;28.08;;;14.65;;
42616;SDS011;28250;52.320;0.360;2024-03-08T12:45:18;33.58;;;16.83;;
42616;SDS011;28250;52.320;0.360;2024-03-08T12:47:47;27.35;;;14.77;;
42616;SDS011;28250;52.320;0.360;2024-03-08T12:52:42;31.83;;;15.20;;
42616;SDS011;28250;52.320;0.360;2024-03-08T12:55:09;29.02;;;14.50;;
42616;SDS011;28250;52.320;0.360;2024-03-08T12:57:35;29.60;;;15.73;;
42616;SDS011;28250;52.320;0.360;2024-03-08T13:00:03;27.90;;;15.32;;
42616;SDS011;28250;52.320;0.360;2024-03-08T13:02:30;24.83;;;14.48;;
42616;SDS011;28250;52.320;0.360;2024-03-08T13:04:57;26.52;;;13.75;;
42616;SDS011;28250;52.320;0.360;2024-03-08T13:07:24;23.88;;;13.30;;
42616;SDS011;28250;52.320;0.360;2024-03-08T13:09:54;28.88;;;13.73;;
42616;SDS011;28250;52.320;0.360;2024-03-08T13:12:21;24.83;;;13.98;;
42616;SDS011;28250;52.320;0.360;2024-03-08T13:14:49;27.85;;;13.80;;
42616;SDS011;28250;52.320;0.360;2024-03-08T13:17:16;26.02;;;13.98;;
42616;SDS011;28250;52.320;0.360;2024-03-08T13:19:44;28.13;;;13.63;;
42616;SDS011;28250;52.320;0.360;2024-03-08T13:22:10;30.60;;;14.85;;
42616;SDS011;28250;52.320;0.360;2024-03-08T13:24:38;29.05;;;14.70;;
42616;SDS011;28250;52.320;0.360;2024-03-08T13:27:07;29.52;;;15.38;;
42616;SDS011;28250;52.320;0.360;2024-03-08T13:29:49;27.48;;;14.65;;
42616;SDS011;28250;52.320;0.360;2024-03-08T13:32:16;27.42;;;14.20;;
42616;SDS011;28250;52.320;0.360;2024-03-08T13:34:43;29.95;;;15.07;;
42616;SDS011;28250;52.320;0.360;2024-03-08T13:37:10;29.73;;;13.85;;
42616;SDS011;28250;52.320;0.360;2024-03-08T13:39:37;26.57;;;14.20;;
42616;SDS011;28250;52.320;0.360;2024-03-08T13:44:39;31.85;;;14.43;;
42616;SDS011;28250;52.320;0.360;2024-03-08T13:47:09;26.00;;;13.80;;
42616;SDS011;28250;52.320;0.360;2024-03-08T13:49:37;27.42;;;14.82;;
42616;SDS011;28250;52.320;0.360;2024-03-08T13:52:03;27.75;;;14.40;;
42616;SDS011;28250;52.320;0.360;2024-03-08T13:54:30;27.07;;;14.53;;
42616;SDS011;28250;52.320;0.360;2024-03-08T13:56:57;26.90;;;14.93;;
42616;SDS011;28250;52.320;0.360;2024-03-08T13:59:24;28.98;;;15.13;;
42616;SDS011;28250;52.320;0.360;2024-03-08T14:01:54;25.27;;;14.48;;
42616;SDS011;28250;52.320;0.360;2024-03-08T14:04:22;28.40;;;14.65;;
42616;SDS011;28250;52.320;0.360;2024-03-08T14:06:49;28.97;;;16.00;;
42616;SDS011;28250;52.320;0.360;2024-03-08T14:09:16;30.20;;;16.23;;
42616;SDS011;28250;52.320;0.360;2024-03-08T14:11:43;31.92;;;15.57;;
42616;SDS011;28250;52.320;0.360;2024-03-08T14:14:12;28.85;;;14.88;;
42616;SDS011;28250;52.320;0.360;2024-03-08T14:16:41;31.45;;;15.23;;
42616;SDS011;28250;52.320;0.360;2024-03-08T14:19:08;30.23;;;15.40;;
42616;SDS011;28250;52.320;0.360;2024-03-08T14:21:35;29.55;;;14.82;;
42616;SDS011;28250;52.320;0.360;2024-03-08T14:24:04;32.42;;;15.00;;
42616;SDS011;28250;52.320;0.360;2024-03-08T14:26:30;27.30;;;14.55;;
42616;SDS011;28250;52.320;0.360;2024-03-08T14:28:57;29.95;;;15.65;;
42616;SDS011;28250;52.320;0.360;2024-03-08T14:31:23;27.25;;;14.75;;
42616;SDS011;28250;52.320;0.360;2024-03-08T14:33:54;31.45;;;15.00;;
42616;SDS011;28250;52.320;0.360;2024-03-08T14:36:21;31.67;;;15.23;;
42616;SDS011;28250;52.320;0.360;2024-03-08T14:38:48;28.63;;;14.80;;
42616;SDS011;28250;52.320;0.360;2024-03-08T14:41:14;27.13;;;14.40;;
42616;SDS011;28250;52.320;0.360;2024-03-08T14:43:43;30.45;;;15.35;;
42616;SDS011;28250;52.320;0.360;2024-03-08T14:46:11;29.38;;;15.27;;
42616;SDS011;28250;52.320;0.360;2024-03-08T14:48:43;31.75;;;15.63;;
42616;SDS011;28250;52.320;0.360;2024-03-08T14:51:10;33.88;;;15.02;;
42616;SDS011;28250;52.320;0.360;2024-03-08T14:53:43;28.67;;;15.65;;
42616;SDS011;28250;52.320;0.360;2024-03-08T14:56:10;27.88;;;14.98;;
42616;SDS011;28250;52.320;0.360;2024-03-08T14:58:42;32.88;;;15.02;;
42616;SDS011;28250;52.320;0.360;2024-03-08T15:03:38;30.90;;;14.77;;
42616;SDS011;28250;52.320;0.360;2024-03-08T15:06:05;29.02;;;15.73;;